Time;durP1;ratioP1;P1;durP2;ratioP2;P2;SDS_P1;SDS_P2;PMS_P1;PMS_P2;Temp;Humidity;BMP_temperature;BMP_pressure;BME280_temperature;BME280_humidity;BME280_pressure;Samples;Min_cycle;Max_cycle;Signal;HPM_P1;HPM_P2
2021/10/17 00:01:39;;;;;;;1.85;1.20;;;18.20;72.10;;;;;;4954573;28;98455;-62
2021/10/17 00:04:13;;;;;;;1.23;1.00;;;18.30;72.20;;;;;;4965272;28;95857;-65
2021/10/17 00:06:43;;;;;;;;;;;18.30;72.00;;;;;;4937428;28;95920;-62
2021/10/17 00:09:14;;;;;;;0.90;0.90;;;18.30;71.90;;;;;;4965743;28;95634;-62
2021/10/17 00:11:47;;;;;;;1.63;1.13;;;18.30;71.90;;;;;;4964465;28;96973;-62
2021/10/17 00:14:17;;;;;;;1.55;1.10;;;18.30;71.70;;;;;;4964273;28;95886;-68
2021/10/17 00:16:46;;;;;;;1.42;1.02;;;18.30;71.70;;;;;;4923760;28;98425;-63
2021/10/17 00:19:16;;;;;;;1.48;1.25;;;18.30;71.60;;;;;;4963797;28;96521;-63
2021/10/17 00:21:48;;;;;;;1.93;1.37;;;18.30;71.60;;;;;;4965434;28;96144;-68
2021/10/17 00:24:19;;;;;;;2.15;1.02;;;18.30;71.50;;;;;;4979751;28;96516;-63
2021/10/17 00:26:50;;;;;;;1.58;1.33;;;18.30;71.50;;;;;;4962458;28;95506;-68
2021/10/17 00:29:21;;;;;;;1.40;1.10;;;18.30;71.50;;;;;;4948795;28;96037;-63
2021/10/17 00:31:53;;;;;;;1.20;1.10;;;18.30;71.40;;;;;;4939026;28;95900;-69
2021/10/17 00:34:24;;;;;;;0.90;0.80;;;18.30;71.40;;;;;;4961253;28;96216;-61
2021/10/17 00:36:54;;;;;;;1.40;0.97;;;18.30;71.30;;;;;;4958941;28;95964;-62
2021/10/17 00:39:24;;;;;;;1.95;1.02;;;18.30;71.30;;;;;;4937028;28;95801;-62
2021/10/17 00:42:02;;;;;;;1.75;1.05;;;18.30;71.20;;;;;;4946487;28;96793;-69
2021/10/17 00:44:33;;;;;;;2.33;1.23;;;18.30;71.10;;;;;;4950048;28;97381;-62
2021/10/17 00:47:04;;;;;;;;;;;18.40;71.10;;;;;;4961918;28;96064;-69
2021/10/17 00:49:34;;;;;;;2.72;1.33;;;18.30;71.00;;;;;;4971812;28;95833;-62
2021/10/17 00:52:04;;;;;;;2.72;1.13;;;18.30;70.90;;;;;;4962772;28;96091;-62
2021/10/17 00:54:38;;;;;;;1.60;1.10;;;18.40;70.80;;;;;;4958212;28;98002;-62
2021/10/17 00:57:08;;;;;;;2.08;1.40;;;18.40;70.90;;;;;;4957372;28;95828;-62
2021/10/17 00:59:39;;;;;;;4.25;1.50;;;18.30;70.90;;;;;;4973444;28;95687;-69
2021/10/17 01:02:10;;;;;;;4.53;1.10;;;18.30;70.90;;;;;;4947998;28;96107;-62
2021/10/17 01:04:43;;;;;;;7.85;1.35;;;18.20;70.90;;;;;;4955184;28;97336;-62
2021/10/17 01:07:13;;;;;;;4.95;1.33;;;18.20;71.00;;;;;;4974518;28;95761;-68
2021/10/17 01:09:43;;;;;;;4.47;1.30;;;18.20;71.20;;;;;;4953328;28;95544;-63
2021/10/17 01:12:18;;;;;;;3.55;1.02;;;18.20;71.30;;;;;;4952682;28;98717;-63
2021/10/17 01:14:48;;;;;;;4.45;1.17;;;18.10;71.50;;;;;;4940766;28;97542;-69
2021/10/17 01:17:20;;;;;;;3.75;1.00;;;18.10;71.70;;;;;;4952344;28;96026;-69
2021/10/17 01:19:51;;;;;;;2.60;1.50;;;18.10;71.80;;;;;;4982277;28;95725;-63
2021/10/17 01:22:24;;;;;;;2.35;1.15;;;18.00;71.90;;;;;;4953731;28;98593;-63
2021/10/17 01:24:59;;;;;;;3.58;1.20;;;18.10;71.90;;;;;;4951424;28;98212;-64
2021/10/17 01:27:30;;;;;;;3.78;1.13;;;18.00;71.90;;;;;;4970946;28;95609;-63
2021/10/17 01:30:04;;;;;;;2.47;1.15;;;18.00;72.00;;;;;;4981555;28;95921;-63
2021/10/17 01:32:36;;;;;;;1.83;1.40;;;18.00;72.00;;;;;;4950650;28;96752;-63
2021/10/17 01:35:07;;;;;;;2.38;1.13;;;18.00;72.00;;;;;;4975752;28;97833;-63
2021/10/17 01:37:37;;;;;;;3.33;1.00;;;18.00;71.90;;;;;;4952242;28;98013;-63
2021/10/17 01:40:08;;;;;;;2.85;1.17;;;18.00;71.90;;;;;;4953335;28;95712;-63
2021/10/17 01:42:38;;;;;;;0.87;0.70;;;18.00;72.00;;;;;;4973892;28;96178;-63
2021/10/17 01:45:10;;;;;;;4.35;1.52;;;18.00;72.10;;;;;;4948507;28;97599;-63
2021/10/17 01:47:51;;;;;;;1.70;1.10;;;18.00;72.20;;;;;;4953476;28;95585;-63
2021/10/17 01:50:23;;;;;;;1.42;1.00;;;18.00;72.10;;;;;;4986528;28;96255;-63
2021/10/17 01:52:53;;;;;;;1.93;1.20;;;18.00;72.20;;;;;;4963157;28;96106;-63
2021/10/17 01:55:23;;;;;;;1.10;1.00;;;17.90;72.20;;;;;;4955741;28;96099;-63
2021/10/17 01:57:54;;;;;;;1.85;0.82;;;18.00;72.20;;;;;;4951631;28;95417;-63
2021/10/17 02:00:26;;;;;;;2.85;1.05;;;17.90;72.30;;;;;;4950575;28;97293;-61
2021/10/17 02:02:58;;;;;;;2.92;1.00;;;18.00;72.30;;;;;;4955951;28;98431;-63
2021/10/17 02:05:37;;;;;;;1.58;1.15;;;17.90;72.20;;;;;;4954739;28;95446;-63
2021/10/17 02:08:09;;;;;;;2.38;1.05;;;18.00;72.20;;;;;;4956218;28;95767;-63
2021/10/17 02:10:39;;;;;;;1.00;0.67;;;17.90;72.20;;;;;;4973837;28;95967;-63
2021/10/17 02:13:11;;;;;;;2.00;0.90;;;17.90;72.30;;;;;;4953674;28;98343;-63
2021/10/17 02:15:42;;;;;;;1.23;0.70;;;17.90;72.20;;;;;;4966642;28;96903;-69
2021/10/17 02:18:13;;;;;;;;;;;17.90;72.20;;;;;;4971835;28;95742;-63
2021/10/17 02:20:48;;;;;;;0.70;0.65;;;17.90;72.80;;;;;;4972079;28;95578;-63
2021/10/17 02:23:19;;;;;;;1.10;0.80;;;17.90;72.30;;;;;;4954331;28;98418;-63
2021/10/17 02:25:54;;;;;;;1.10;0.77;;;17.90;72.30;;;;;;4977162;28;95800;-63
2021/10/17 02:28:44;;;;;;;1.13;0.77;;;17.90;72.30;;;;;;4964116;28;95304;-63
2021/10/17 02:31:16;;;;;;;1.20;0.90;;;17.90;72.30;;;;;;4957981;28;95331;-63
2021/10/17 02:33:52;;;;;;;1.80;1.00;;;17.90;72.40;;;;;;4961039;28;96175;-63
2021/10/17 02:36:23;;;;;;;;;;;17.90;72.30;;;;;;4990425;28;97497;-68
2021/10/17 02:38:53;;;;;;;1.02;0.73;;;17.90;72.30;;;;;;4969892;28;95663;-64
2021/10/17 02:41:23;;;;;;;0.85;0.80;;;17.90;72.40;;;;;;4974986;28;95066;-64
2021/10/17 02:43:53;;;;;;;1.77;0.90;;;17.90;72.40;;;;;;4972399;28;95968;-64
2021/10/17 02:46:24;;;;;;;1.45;1.20;;;17.90;72.50;;;;;;4977417;28;97345;-64
2021/10/17 02:48:55;;;;;;;1.40;0.98;;;17.90;72.40;;;;;;4939089;28;95864;-64
2021/10/17 02:51:25;;;;;;;1.52;0.80;;;17.90;72.40;;;;;;4952152;28;96167;-63
2021/10/17 02:54:01;;;;;;;1.63;1.13;;;17.90;72.40;;;;;;4953521;28;98648;-64
2021/10/17 02:56:32;;;;;;;2.20;1.08;;;17.90;72.40;;;;;;4956098;28;97146;-64
2021/10/17 02:59:01;;;;;;;1.30;0.93;;;17.90;72.50;;;;;;4951763;28;95945;-69
2021/10/17 03:01:32;;;;;;;1.52;0.88;;;17.90;72.40;;;;;;4949775;28;99833;-64
2021/10/17 03:04:05;;;;;;;0.93;0.80;;;17.90;72.40;;;;;;4935620;28;96168;-64
2021/10/17 03:06:36;;;;;;;0.68;0.68;;;17.90;72.60;;;;;;4983903;28;97570;-63
2021/10/17 03:09:07;;;;;;;1.98;0.88;;;17.90;72.50;;;;;;4970881;28;95572;-69
2021/10/17 03:11:39;;;;;;;0.88;0.88;;;17.90;72.40;;;;;;4952029;28;97968;-69
2021/10/17 03:14:09;;;;;;;1.88;0.80;;;17.90;72.30;;;;;;4934407;28;97982;-64
2021/10/17 03:16:46;;;;;;;1.00;0.80;;;17.90;72.30;;;;;;4940415;28;95859;-69
2021/10/17 03:19:17;;;;;;;0.70;0.70;;;17.90;72.30;;;;;;4951020;28;95764;-64
2021/10/17 03:21:47;;;;;;;;;;;17.90;72.30;;;;;;4970608;28;97490;-64
2021/10/17 03:24:18;;;;;;;0.70;0.70;;;17.90;72.20;;;;;;4936516;28;98683;-64
2021/10/17 03:26:49;;;;;;;0.85;0.68;;;18.00;72.30;;;;;;4968464;28;98063;-64
2021/10/17 03:29:20;;;;;;;0.93;0.70;;;18.00;72.20;;;;;;4941845;28;95534;-64
2021/10/17 03:31:59;;;;;;;0.80;0.80;;;18.00;72.20;;;;;;4945928;28;96519;-64
2021/10/17 03:34:33;;;;;;;3.00;0.80;;;18.00;72.10;;;;;;4968809;28;96605;-64
2021/10/17 03:37:03;;;;;;;0.60;0.60;;;18.00;72.20;;;;;;4968303;28;96177;-64
2021/10/17 03:39:34;;;;;;;1.33;0.60;;;18.00;72.30;;;;;;4953234;28;95891;-69
2021/10/17 03:42:06;;;;;;;0.68;0.52;;;18.00;72.30;;;;;;4951511;28;96394;-63
2021/10/17 03:49:05;;;;;;;0.88;0.60;;;18.10;72.50;;;;;;4972051;28;101379;-64
2021/10/17 03:51:35;;;;;;;0.60;0.60;;;18.10;72.40;;;;;;4970634;28;96064;-64
2021/10/17 03:54:07;;;;;;;0.77;0.70;;;18.10;72.20;;;;;;4975023;28;95748;-64
2021/10/17 03:56:39;;;;;;;0.45;0.45;;;18.20;72.10;;;;;;4951954;28;96933;-64
2021/10/17 03:59:15;;;;;;;0.50;0.50;;;18.20;72.00;;;;;;4957760;28;95762;-64
2021/10/17 04:01:48;;;;;;;1.52;0.77;;;18.20;72.00;;;;;;4948844;28;95284;-64
2021/10/17 04:04:21;;;;;;;1.13;0.80;;;18.30;71.90;;;;;;4972572;28;95224;-64
2021/10/17 04:06:53;;;;;;;1.15;0.77;;;18.30;71.90;;;;;;4952158;28;96418;-64
2021/10/17 04:09:30;;;;;;;0.80;0.70;;;18.30;71.90;;;;;;4930501;28;95667;-65
2021/10/17 04:12:00;;;;;;;0.85;0.50;;;18.30;71.90;;;;;;4970988;28;96912;-71
2021/10/17 04:14:35;;;;;;;0.63;0.30;;;18.30;71.90;;;;;;4952303;28;95433;-64
2021/10/17 04:17:06;;;;;;;1.50;0.73;;;18.40;72.00;;;;;;4974221;28;99046;-64
2021/10/17 04:19:37;;;;;;;0.63;0.63;;;18.40;72.00;;;;;;4972404;28;97056;-64
2021/10/17 04:22:08;;;;;;;;;;;18.40;72.00;;;;;;4984064;28;95721;-70
2021/10/17 04:29:05;;;;;;;0.60;0.60;;;18.40;72.00;;;;;;4982081;28;96159;-64
2021/10/17 04:31:37;;;;;;;1.40;0.68;;;18.50;71.90;;;;;;4944530;28;96241;-64
2021/10/17 04:34:08;;;;;;;0.82;0.50;;;18.50;71.90;;;;;;4974772;28;95208;-64
2021/10/17 04:36:38;;;;;;;0.47;0.47;;;18.50;71.90;;;;;;4951573;28;95894;-64
2021/10/17 04:39:09;;;;;;;0.68;0.47;;;18.50;71.90;;;;;;4968240;28;97172;-64
2021/10/17 04:41:41;;;;;;;0.60;0.60;;;18.50;71.90;;;;;;4953978;28;98083;-64
2021/10/17 04:44:12;;;;;;;0.60;0.60;;;18.60;72.00;;;;;;4956345;28;95997;-64
2021/10/17 04:46:44;;;;;;;0.80;0.40;;;18.60;72.00;;;;;;4979776;28;95931;-64
2021/10/17 04:49:16;;;;;;;0.52;0.52;;;18.60;72.10;;;;;;4961804;28;98187;-70
2021/10/17 04:51:47;;;;;;;1.75;0.55;;;18.60;72.20;;;;;;4975295;28;95566;-70
2021/10/17 04:54:17;;;;;;;1.75;0.60;;;18.70;72.10;;;;;;4959507;28;97970;-64
2021/10/17 04:56:47;;;;;;;2.05;0.45;;;18.70;72.20;;;;;;4957060;28;95375;-64
2021/10/17 04:59:21;;;;;;;1.15;0.43;;;18.70;72.20;;;;;;4973701;28;98387;-64
2021/10/17 05:01:58;;;;;;;1.58;0.68;;;18.70;72.20;;;;;;4949180;28;97573;-65
2021/10/17 05:04:29;;;;;;;1.73;0.57;;;18.80;72.20;;;;;;4967510;28;96105;-64
2021/10/17 05:07:00;;;;;;;0.52;0.52;;;18.70;72.10;;;;;;4974257;28;95767;-65
2021/10/17 05:09:31;;;;;;;0.75;0.73;;;18.80;72.20;;;;;;4972137;28;98385;-65
2021/10/17 05:12:05;;;;;;;1.85;0.60;;;18.80;72.10;;;;;;4954170;28;97536;-64
2021/10/17 05:14:36;;;;;;;2.53;0.60;;;18.80;72.20;;;;;;4955172;28;95268;-70
2021/10/17 05:17:07;;;;;;;2.33;0.90;;;18.80;72.10;;;;;;4964010;28;95685;-68
2021/10/17 05:19:38;;;;;;;;;;;18.80;72.20;;;;;;4954923;28;96890;-65
2021/10/17 05:22:09;;;;;;;2.17;0.50;;;18.80;72.10;;;;;;4971208;28;97406;-64
2021/10/17 05:24:41;;;;;;;1.15;0.65;;;18.90;72.20;;;;;;4988265;28;96222;-70
2021/10/17 05:27:12;;;;;;;0.50;0.50;;;18.90;72.10;;;;;;4977164;28;95332;-65
2021/10/17 05:29:43;;;;;;;0.50;0.50;;;18.80;72.00;;;;;;4959695;28;96252;-64
2021/10/17 05:32:14;;;;;;;0.52;0.52;;;18.80;72.00;;;;;;4932764;28;97607;-65
2021/10/17 05:34:45;;;;;;;0.68;0.65;;;18.90;72.00;;;;;;4975234;28;95884;-65
2021/10/17 05:37:15;;;;;;;0.73;0.50;;;18.90;71.90;;;;;;4976300;28;95895;-65
2021/10/17 05:39:46;;;;;;;0.57;0.57;;;18.90;71.90;;;;;;4962100;28;98487;-64
2021/10/17 05:42:17;;;;;;;0.63;0.47;;;18.90;71.80;;;;;;4983624;28;96041;-65
2021/10/17 05:44:49;;;;;;;0.63;0.63;;;18.90;71.80;;;;;;4967764;28;95239;-64
2021/10/17 05:47:22;;;;;;;0.63;0.60;;;18.90;71.80;;;;;;4958668;28;95972;-65
2021/10/17 05:49:52;;;;;;;0.50;0.50;;;18.90;71.70;;;;;;4987433;28;95164;-65
2021/10/17 05:52:23;;;;;;;0.93;0.50;;;18.90;71.70;;;;;;4959861;28;96003;-64
2021/10/17 05:54:55;;;;;;;2.67;0.65;;;19.00;71.70;;;;;;4979651;28;95672;-65
2021/10/17 05:57:26;;;;;;;0.73;0.45;;;18.90;71.60;;;;;;4979852;28;95977;-65
2021/10/17 05:59:56;;;;;;;0.63;0.50;;;18.90;71.60;;;;;;4954088;28;96925;-65
2021/10/17 06:02:26;;;;;;;0.80;0.68;;;19.00;71.60;;;;;;4955932;28;95516;-64
2021/10/17 06:05:00;;;;;;;1.08;0.35;;;19.00;71.60;;;;;;4988400;28;95853;-64
2021/10/17 06:07:30;;;;;;;;;;;19.00;71.60;;;;;;4962587;28;95372;-64
2021/10/17 06:10:00;;;;;;;2.28;0.63;;;18.90;71.60;;;;;;4956947;28;96072;-65
2021/10/17 06:12:32;;;;;;;0.95;0.50;;;19.00;71.60;;;;;;4954047;28;95848;-65
2021/10/17 06:15:04;;;;;;;0.77;0.60;;;19.00;71.60;;;;;;4954438;28;95535;-64
2021/10/17 06:17:37;;;;;;;2.00;0.55;;;19.00;71.60;;;;;;4958239;28;95519;-65
2021/10/17 06:20:08;;;;;;;0.70;0.55;;;19.00;71.70;;;;;;4953867;28;96129;-65
2021/10/17 06:22:44;;;;;;;0.80;0.80;;;19.00;71.70;;;;;;4951409;28;95955;-64
2021/10/17 06:25:15;;;;;;;1.88;0.77;;;19.00;71.60;;;;;;4954551;28;95371;-65
2021/10/17 06:27:47;;;;;;;0.75;0.63;;;19.00;71.60;;;;;;4955397;28;96025;-64
2021/10/17 06:30:20;;;;;;;0.50;0.50;;;19.00;72.20;;;;;;4951196;28;96067;-65
2021/10/17 06:32:51;;;;;;;1.83;1.10;;;19.00;71.60;;;;;;4931355;28;101135;-72
2021/10/17 06:35:23;;;;;;;3.10;1.00;;;19.00;72.30;;;;;;4940552;28;96828;-65
2021/10/17 06:37:54;;;;;;;1.95;0.68;;;19.10;72.30;;;;;;4961721;28;95793;-70
2021/10/17 06:40:24;;;;;;;1.88;0.90;;;19.20;72.50;;;;;;4969608;28;95908;-64
2021/10/17 06:42:56;;;;;;;2.28;0.68;;;19.20;72.70;;;;;;4948330;28;97718;-64
2021/10/17 06:45:46;;;;;;;2.38;0.77;;;19.30;72.70;;;;;;4963508;28;95680;-65
2021/10/17 06:48:18;;;;;;;2.65;0.80;;;19.40;73.30;;;;;;4966159;28;96006;-64
2021/10/17 06:50:49;;;;;;;1.25;0.68;;;19.40;72.30;;;;;;4957258;28;98681;-65
2021/10/17 06:53:20;;;;;;;1.53;0.80;;;19.40;72.20;;;;;;4953164;28;97457;-65
2021/10/17 06:55:50;;;;;;;2.17;1.00;;;19.40;72.10;;;;;;4965842;28;95694;-65
2021/10/17 06:58:23;;;;;;;2.40;0.57;;;19.50;72.20;;;;;;4961634;28;95467;-65
2021/10/17 07:00:54;;;;;;;2.53;0.93;;;19.50;72.10;;;;;;4986864;28;98122;-65
2021/10/17 07:03:25;;;;;;;0.88;0.60;;;19.50;72.00;;;;;;4967273;28;95898;-70
2021/10/17 07:06:19;;;;;;;2.00;0.90;;;19.50;71.90;;;;;;4944394;28;96937;-65
2021/10/17 07:09:03;;;;;;;1.48;0.75;;;19.50;71.80;;;;;;4935693;28;95885;-65
2021/10/17 07:11:43;;;;;;;0.88;0.73;;;19.60;71.70;;;;;;4955154;28;98304;-65
2021/10/17 07:14:27;;;;;;;1.85;0.95;;;19.60;71.50;;;;;;4947880;28;96040;-69
2021/10/17 07:17:12;;;;;;;1.42;0.70;;;19.60;71.40;;;;;;4944162;28;95965;-69
2021/10/17 07:19:44;;;;;;;0.90;0.80;;;19.60;71.30;;;;;;4974091;28;95516;-69
2021/10/17 07:22:16;;;;;;;2.08;0.82;;;19.60;71.20;;;;;;4998375;28;96103;-64
2021/10/17 07:24:51;;;;;;;1.33;1.00;;;19.60;71.10;;;;;;4954384;28;97236;-65
2021/10/17 07:27:22;;;;;;;;;;;19.60;71.10;;;;;;4956008;28;96206;-65
2021/10/17 07:29:53;;;;;;;1.10;0.90;;;19.70;71.10;;;;;;4949736;28;95878;-69
2021/10/17 07:32:24;;;;;;;0.80;0.80;;;19.70;71.00;;;;;;4940537;28;98285;-65
2021/10/17 07:34:56;;;;;;;0.95;0.80;;;19.70;70.90;;;;;;4964218;28;97480;-64
2021/10/17 07:37:35;;;;;;;0.77;0.77;;;19.60;70.80;;;;;;4964761;28;95831;-69
2021/10/17 07:40:10;;;;;;;0.90;0.90;;;19.70;70.80;;;;;;4964407;28;96026;-65
2021/10/17 07:42:43;;;;;;;1.83;0.90;;;19.60;70.70;;;;;;4964845;28;96250;-70
2021/10/17 07:45:19;;;;;;;0.80;0.80;;;19.70;70.80;;;;;;4940709;28;97918;-66
2021/10/17 07:47:58;;;;;;;0.93;0.80;;;19.60;70.60;;;;;;4952292;28;96087;-66
2021/10/17 07:50:28;;;;;;;1.58;0.85;;;19.60;70.60;;;;;;4948645;28;95518;-70
2021/10/17 07:53:02;;;;;;;1.02;0.85;;;19.60;70.60;;;;;;4983664;28;95832;-70
2021/10/17 07:55:36;;;;;;;0.75;0.70;;;19.60;70.50;;;;;;4955423;28;96787;-66
2021/10/17 07:58:10;;;;;;;1.02;0.65;;;19.60;70.60;;;;;;4954175;28;95429;-66
2021/10/17 08:00:49;;;;;;;2.33;0.73;;;19.60;70.50;;;;;;4954922;28;95985;-66
2021/10/17 08:03:48;;;;;;;2.00;0.90;;;19.60;70.50;;;;;;4956305;28;95908;-69
2021/10/17 08:06:30;;;;;;;1.17;1.08;;;19.60;70.40;;;;;;4988216;28;97921;-69
2021/10/17 08:09:03;;;;;;;1.20;1.10;;;19.60;70.40;;;;;;4951043;28;95747;-64
2021/10/17 08:11:34;;;;;;;0.90;0.90;;;19.60;70.40;;;;;;4976872;28;96124;-66
2021/10/17 08:14:06;;;;;;;1.55;1.00;;;19.60;70.40;;;;;;4969838;28;96838;-70
2021/10/17 08:16:43;;;;;;;0.95;0.80;;;19.60;70.50;;;;;;4949507;28;97580;-70
2021/10/17 08:19:14;;;;;;;1.48;0.82;;;19.60;70.60;;;;;;4954965;28;95581;-70
2021/10/17 08:21:46;;;;;;;1.48;0.98;;;19.60;70.70;;;;;;4953174;28;95240;-71
2021/10/17 08:24:17;;;;;;;2.05;1.38;;;19.60;70.90;;;;;;4958354;28;96906;-66
2021/10/17 08:26:50;;;;;;;3.60;1.60;;;19.60;71.10;;;;;;4952857;28;97573;-66
2021/10/17 08:29:32;;;;;;;1.77;1.67;;;19.60;72.00;;;;;;4969382;28;96344;-66
2021/10/17 08:32:03;;;;;;;1.40;1.30;;;19.60;71.40;;;;;;4961598;28;97560;-71
2021/10/17 08:34:42;;;;;;;2.22;1.75;;;19.60;71.90;;;;;;4966351;28;98510;-66
2021/10/17 08:37:14;;;;;;;3.47;2.33;;;19.60;72.00;;;;;;4933700;28;98129;-66
2021/10/17 08:40:03;;;;;;;3.50;2.95;;;19.60;72.40;;;;;;4970060;28;95855;-66
2021/10/17 08:42:51;;;;;;;3.20;2.67;;;19.60;72.60;;;;;;4976316;28;95350;-70
2021/10/17 08:45:30;;;;;;;3.60;2.67;;;19.50;72.90;;;;;;4934056;28;98739;-66
2021/10/17 08:48:06;;;;;;;2.67;2.47;;;19.60;73.10;;;;;;4969766;28;97930;-66
2021/10/17 08:50:43;;;;;;;3.88;2.95;;;19.50;73.20;;;;;;4963907;28;95385;-66
2021/10/17 08:53:14;;;;;;;6.15;3.22;;;19.50;73.40;;;;;;4968458;28;95859;-66
2021/10/17 08:55:58;;;;;;;5.43;3.60;;;19.50;73.30;;;;;;4969196;28;97311;-65
2021/10/17 08:58:39;;;;;;;3.38;3.08;;;19.50;73.60;;;;;;4970546;28;96589;-66
2021/10/17 09:01:18;;;;;;;3.83;2.75;;;19.40;73.50;;;;;;4988920;28;95586;-66
2021/10/17 09:03:58;;;;;;;4.20;3.00;;;19.30;73.70;;;;;;4976621;28;95298;-70
2021/10/17 09:06:41;;;;;;;6.13;3.13;;;19.30;73.50;;;;;;4987460;28;96134;-66
2021/10/17 09:09:18;;;;;;;5.53;3.13;;;19.20;73.70;;;;;;4957382;28;97174;-66
2021/10/17 09:11:58;;;;;;;4.82;2.28;;;19.20;73.80;;;;;;4956217;28;96029;-65
2021/10/17 09:14:30;;;;;;;3.78;3.03;;;19.20;73.80;;;;;;4975362;28;95794;-66
2021/10/17 09:17:00;;;;;;;3.53;2.53;;;19.10;73.80;;;;;;4964723;28;98462;-66
2021/10/17 09:19:34;;;;;;;4.70;3.45;;;19.10;73.90;;;;;;4964290;28;96705;-66
2021/10/17 09:22:11;;;;;;;3.53;2.85;;;19.10;73.70;;;;;;4956697;28;96041;-66
2021/10/17 09:24:46;;;;;;;3.35;2.85;;;19.10;73.70;;;;;;4979288;28;96006;-66
2021/10/17 09:27:23;;;;;;;3.85;2.75;;;19.00;73.60;;;;;;4951767;28;98739;-66
2021/10/17 09:29:55;;;;;;;4.25;3.10;;;19.00;73.60;;;;;;4980172;28;95833;-71
2021/10/17 09:32:29;;;;;;;4.53;3.33;;;19.00;73.80;;;;;;4947141;28;95997;-69
2021/10/17 09:35:06;;;;;;;6.25;3.58;;;18.90;73.60;;;;;;4952507;28;98387;-67
2021/10/17 09:38:01;;;;;;;5.05;3.00;;;18.90;73.70;;;;;;4971370;28;99766;-69
2021/10/17 09:41:18;;;;;;;4.38;3.05;;;18.90;73.70;;;;;;4968008;28;96240;-66
2021/10/17 09:44:02;;;;;;;5.03;2.88;;;18.80;73.70;;;;;;4956152;28;96801;-66
2021/10/17 09:46:57;;;;;;;5.43;3.17;;;18.80;73.70;;;;;;4961515;28;95790;-67
2021/10/17 09:49:30;;;;;;;4.68;3.08;;;18.70;73.80;;;;;;4972005;28;96145;-66
2021/10/17 09:52:30;;;;;;;4.32;2.67;;;18.70;73.70;;;;;;4969952;28;95905;-69
2021/10/17 09:55:12;;;;;;;4.18;3.20;;;18.70;73.80;;;;;;4972252;28;95692;-67
2021/10/17 09:57:43;;;;;;;2.95;2.72;;;18.70;73.60;;;;;;4976496;28;96271;-67
2021/10/17 10:00:14;;;;;;;4.47;3.03;;;18.60;73.70;;;;;;4967653;28;96115;-67
2021/10/17 10:02:46;;;;;;;4.07;3.22;;;18.60;73.60;;;;;;4969683;28;101828;-66
2021/10/17 10:05:28;;;;;;;4.18;2.70;;;18.60;73.70;;;;;;4970589;28;95831;-66
2021/10/17 10:08:01;;;;;;;4.80;3.05;;;18.60;73.60;;;;;;4965068;28;95836;-66
2021/10/17 10:10:36;;;;;;;2.88;2.60;;;18.50;73.60;;;;;;4968772;28;96568;-66
2021/10/17 10:13:06;;;;;;;2.95;2.58;;;18.50;73.70;;;;;;4968565;28;96196;-66
2021/10/17 10:15:38;;;;;;;4.20;3.33;;;18.50;73.80;;;;;;4949587;28;95900;-67
2021/10/17 10:18:13;;;;;;;4.55;3.05;;;18.40;73.70;;;;;;4924740;28;95433;-66
2021/10/17 10:20:44;;;;;;;3.83;3.05;;;18.40;73.80;;;;;;4970183;28;96611;-66
2021/10/17 10:23:15;;;;;;;4.00;3.05;;;18.40;73.70;;;;;;4970335;28;96751;-68
2021/10/17 10:25:50;;;;;;;3.63;3.33;;;18.40;73.70;;;;;;4967933;28;95870;-66
2021/10/17 10:28:25;;;;;;;4.13;3.28;;;18.40;73.80;;;;;;4972560;28;95691;-65
2021/10/17 10:30:58;;;;;;;3.58;3.00;;;18.30;73.70;;;;;;4953274;28;96008;-66
2021/10/17 10:33:42;;;;;;;4.47;3.25;;;18.30;73.70;;;;;;4972282;28;96286;-66
2021/10/17 10:36:16;;;;;;;4.05;2.95;;;18.30;73.80;;;;;;4959577;28;95376;-66
2021/10/17 10:38:48;;;;;;;;;;;18.30;73.60;;;;;;4944520;28;95770;-68
2021/10/17 10:41:28;;;;;;;4.72;2.83;;;18.30;73.50;;;;;;4967100;28;96049;-68
2021/10/17 10:44:14;;;;;;;3.92;3.20;;;18.30;73.40;;;;;;4943475;28;97705;-68
2021/10/17 10:46:51;;;;;;;3.67;2.80;;;18.30;73.40;;;;;;4945460;28;96043;-68
2021/10/17 10:49:42;;;;;;;3.90;3.00;;;18.30;73.30;;;;;;4954552;28;97586;-66
2021/10/17 10:52:24;;;;;;;4.88;2.53;;;18.30;73.30;;;;;;4957290;28;96388;-66
2021/10/17 10:55:01;;;;;;;4.18;3.10;;;18.30;73.20;;;;;;4955557;28;98227;-66
2021/10/17 10:57:42;;;;;;;3.30;2.95;;;18.30;73.10;;;;;;4969813;28;95823;-66
2021/10/17 11:00:16;;;;;;;4.95;3.47;;;18.30;73.30;;;;;;4961620;28;95672;-69
2021/10/17 11:03:15;;;;;;;7.70;3.58;;;18.30;73.40;;;;;;4967304;28;102311;-66
2021/10/17 11:06:05;;;;;;;4.40;3.08;;;18.20;73.40;;;;;;4967831;28;95618;-65
2021/10/17 11:08:40;;;;;;;3.70;2.97;;;18.20;73.40;;;;;;4968289;28;95827;-66
2021/10/17 11:11:10;;;;;;;5.35;3.15;;;18.10;73.20;;;;;;4943766;28;95659;-66
2021/10/17 11:13:42;;;;;;;6.25;3.70;;;18.20;73.40;;;;;;4936639;28;96622;-68
2021/10/17 11:16:23;;;;;;;5.80;4.15;;;18.20;73.30;;;;;;4960896;28;96267;-65
2021/10/17 11:19:00;;;;;;;6.03;3.85;;;18.20;73.20;;;;;;4972653;28;95761;-66
2021/10/17 11:21:33;;;;;;;6.78;4.30;;;18.10;73.20;;;;;;4968002;28;95774;-65
2021/10/17 11:24:06;;;;;;;5.25;3.90;;;18.10;73.10;;;;;;4968026;28;97773;-66
2021/10/17 11:26:37;;;;;;;4.85;4.18;;;18.10;73.00;;;;;;4970256;28;95631;-65
2021/10/17 11:29:08;;;;;;;5.75;4.65;;;18.10;73.10;;;;;;4967565;28;96268;-66
2021/10/17 11:31:40;;;;;;;5.40;4.32;;;18.00;72.90;;;;;;4949900;28;97488;-65
2021/10/17 11:34:13;;;;;;;;;;;18.00;72.80;;;;;;4976982;28;96981;-65
2021/10/17 11:36:43;;;;;;;5.88;4.65;;;18.00;72.70;;;;;;4948275;28;95795;-69
2021/10/17 11:39:14;;;;;;;6.28;4.78;;;18.00;72.70;;;;;;4970792;28;95345;-65
2021/10/17 11:41:45;;;;;;;8.50;5.43;;;18.00;72.70;;;;;;4985043;28;95789;-65
2021/10/17 11:44:18;;;;;;;6.05;4.82;;;18.00;72.70;;;;;;4963911;28;96133;-65
2021/10/17 11:46:49;;;;;;;7.30;5.57;;;17.90;72.60;;;;;;4964658;28;95824;-66
2021/10/17 11:49:21;;;;;;;6.07;4.68;;;17.90;72.60;;;;;;4926984;28;95925;-65
2021/10/17 11:52:07;;;;;;;7.38;4.97;;;17.90;72.50;;;;;;4977350;28;95284;-65
2021/10/17 11:54:46;;;;;;;7.05;5.05;;;17.90;72.60;;;;;;4980614;28;96723;-69
2021/10/17 11:57:33;;;;;;;8.23;5.95;;;17.90;72.60;;;;;;4965595;28;96972;-67
2021/10/17 12:00:07;;;;;;;8.40;6.60;;;17.80;72.40;;;;;;4970584;28;95587;-66
2021/10/17 12:02:41;;;;;;;8.77;6.20;;;17.80;72.30;;;;;;4979484;28;95675;-68
2021/10/17 12:05:19;;;;;;;8.00;6.78;;;17.80;72.30;;;;;;4973197;28;96811;-66
2021/10/17 12:07:55;;;;;;;10.10;6.75;;;17.80;72.30;;;;;;4992514;28;96295;-65
2021/10/17 12:10:30;;;;;;;8.88;6.57;;;17.70;72.20;;;;;;4984776;28;95621;-67
2021/10/17 12:13:03;;;;;;;7.97;6.00;;;17.70;72.20;;;;;;4996523;28;95414;-67
2021/10/17 12:15:37;;;;;;;9.07;6.63;;;17.70;72.80;;;;;;4986260;28;96061;-67
2021/10/17 12:18:08;;;;;;;9.55;6.72;;;17.70;72.10;;;;;;4987204;28;97295;-67
2021/10/17 12:20:39;;;;;;;10.98;7.22;;;17.60;72.00;;;;;;4993525;28;95741;-67
2021/10/17 12:23:11;;;;;;;10.52;6.93;;;17.60;72.00;;;;;;4985236;28;95236;-67
2021/10/17 12:26:06;;;;;;;8.43;7.05;;;17.60;72.00;;;;;;4959712;28;95929;-66
2021/10/17 12:28:38;;;;;;;8.50;6.40;;;17.50;72.20;;;;;;4971160;28;95560;-67
2021/10/17 12:31:10;;;;;;;7.50;5.93;;;17.60;72.50;;;;;;4948481;28;98474;-67
2021/10/17 12:33:42;;;;;;;7.15;5.80;;;17.50;72.40;;;;;;4961994;28;95770;-66
2021/10/17 12:36:22;;;;;;;8.75;6.18;;;17.50;72.40;;;;;;4965437;28;96476;-66
2021/10/17 12:39:00;;;;;;;7.10;5.55;;;17.50;72.40;;;;;;4970529;28;96442;-66
2021/10/17 12:41:31;;;;;;;6.57;5.50;;;17.50;72.30;;;;;;4964047;28;95814;-65
2021/10/17 12:44:04;;;;;;;7.05;5.47;;;17.50;72.30;;;;;;4982244;28;95785;-67
2021/10/17 12:46:35;;;;;;;6.50;5.30;;;17.50;72.20;;;;;;4945271;28;96426;-67
2021/10/17 12:49:17;;;;;;;6.68;5.40;;;17.50;72.10;;;;;;4977021;28;95899;-67
2021/10/17 12:51:50;;;;;;;9.43;6.45;;;17.40;72.10;;;;;;4974367;28;95948;-67
2021/10/17 12:54:28;;;;;;;8.05;6.25;;;17.40;72.10;;;;;;4961010;28;96262;-67
2021/10/17 12:57:04;;;;;;;7.63;5.47;;;17.40;72.30;;;;;;4976598;28;96130;-67
2021/10/17 12:59:51;;;;;;;6.75;5.70;;;17.40;72.30;;;;;;4976522;28;97114;-67
2021/10/17 13:02:22;;;;;;;6.80;5.50;;;17.40;72.60;;;;;;4970159;28;95824;-67
2021/10/17 13:04:59;;;;;;;6.45;5.28;;;17.40;73.10;;;;;;4979027;28;95412;-67
2021/10/17 13:07:31;;;;;;;6.25;5.53;;;17.40;73.20;;;;;;4973731;28;96400;-67
2021/10/17 13:10:00;;;;;;;;;;;17.40;73.30;;;;;;4979153;28;95830;-67
2021/10/17 13:12:39;;;;;;;5.18;4.60;;;17.40;73.20;;;;;;4982674;28;95666;-68
2021/10/17 13:15:32;;;;;;;7.35;5.90;;;17.40;73.30;;;;;;4980645;28;95721;-67
2021/10/17 13:18:04;;;;;;;6.50;4.65;;;17.30;73.30;;;;;;4966145;28;103657;-67
2021/10/17 13:20:40;;;;;;;5.93;5.32;;;17.30;73.40;;;;;;4949972;28;97739;-67
2021/10/17 13:23:17;;;;;;;6.90;4.90;;;17.30;73.30;;;;;;4965161;28;95973;-67
2021/10/17 13:25:52;;;;;;;6.40;4.72;;;17.30;73.10;;;;;;4935056;28;97076;-67
2021/10/17 13:28:25;;;;;;;6.43;5.20;;;17.30;73.00;;;;;;4972653;28;96481;-67
2021/10/17 13:30:57;;;;;;;6.60;5.78;;;17.30;73.00;;;;;;4959748;28;97991;-67
2021/10/17 13:33:27;;;;;;;9.27;5.10;;;17.30;72.90;;;;;;4976519;28;95339;-66
2021/10/17 13:36:00;;;;;;;6.47;5.28;;;17.30;72.90;;;;;;4967742;28;95746;-65